sensor_id;sensor_type;location;lat;lon;timestamp;pressure;altitude;pressure_sealevel;temperature;humidity
1726;BME280;41776;48.260;8.928;2022-10-03T00:00:32;72319.81;;;-145.69;100.00
1726;BME280;41776;48.260;8.928;2022-10-03T00:03:21;72329.78;;;-145.69;100.00
1726;BME280;41776;48.260;8.928;2022-10-03T00:06:05;72327.78;;;-145.69;100.00
1726;BME280;41776;48.260;8.928;2022-10-03T00:11:39;72333.75;;;-145.69;100.00
1726;BME280;41776;48.260;8.928;2022-10-03T00:14:17;72333.75;;;-145.69;100.00
1726;BME280;41776;48.260;8.928;2022-10-03T00:16:51;72341.72;;;-145.69;100.00
1726;BME280;41776;48.260;8.928;2022-10-03T00:19:26;72345.69;;;-145.69;100.00
1726;BME280;41776;48.260;8.928;2022-10-03T00:22:04;72361.63;;;-145.69;100.00
1726;BME280;41776;48.260;8.928;2022-10-03T00:24:41;72377.53;;;-145.69;100.00
1726;BME280;41776;48.260;8.928;2022-10-03T00:27:15;72391.47;;;-145.69;100.00
1726;BME280;41776;48.260;8.928;2022-10-03T00:30:07;72389.50;;;-145.69;100.00
1726;BME280;41776;48.260;8.928;2022-10-03T00:32:51;72397.44;;;-145.69;100.00
1726;BME280;41776;48.260;8.928;2022-10-03T00:35:34;72399.44;;;-145.69;100.00
1726;BME280;41776;48.260;8.928;2022-10-03T00:38:16;72405.41;;;-145.69;100.00
1726;BME280;41776;48.260;8.928;2022-10-03T00:41:22;72413.38;;;-145.69;100.00
1726;BME280;41776;48.260;8.928;2022-10-03T00:44:19;72417.34;;;-145.69;100.00
1726;BME280;41776;48.260;8.928;2022-10-03T00:53:18;72405.41;;;-145.69;100.00
1726;BME280;41776;48.260;8.928;2022-10-03T00:56:06;72397.44;;;-145.69;100.00
1726;BME280;41776;48.260;8.928;2022-10-03T00:58:54;72397.44;;;-145.69;100.00
1726;BME280;41776;48.260;8.928;2022-10-03T01:01:31;72389.50;;;-145.69;100.00
1726;BME280;41776;48.260;8.928;2022-10-03T01:04:14;72391.47;;;-145.69;100.00
1726;BME280;41776;48.260;8.928;2022-10-03T01:06:51;72409.38;;;-145.69;100.00
1726;BME280;41776;48.260;8.928;2022-10-03T01:09:31;72441.25;;;-145.69;100.00
1726;BME280;41776;48.260;8.928;2022-10-03T01:12:11;72469.09;;;-145.69;100.00
1726;BME280;41776;48.260;8.928;2022-10-03T01:15:05;72475.06;;;-145.69;100.00
1726;BME280;41776;48.260;8.928;2022-10-03T01:17:41;72489.00;;;-145.69;100.00
1726;BME280;41776;48.260;8.928;2022-10-03T01:20:24;72504.94;;;-145.69;100.00
1726;BME280;41776;48.260;8.928;2022-10-03T01:26:39;72532.78;;;-145.69;100.00
1726;BME280;41776;48.260;8.928;2022-10-03T01:29:13;72564.66;;;-145.69;100.00
1726;BME280;41776;48.260;8.928;2022-10-03T01:32:01;72580.56;;;-145.69;100.00
1726;BME280;41776;48.260;8.928;2022-10-03T01:34:34;72604.44;;;-145.69;100.00
1726;BME280;41776;48.260;8.928;2022-10-03T01:37:08;72612.41;;;-145.69;100.00
1726;BME280;41776;48.260;8.928;2022-10-03T01:39:46;72620.38;;;-145.69;100.00
1726;BME280;41776;48.260;8.928;2022-10-03T01:42:19;72636.31;;;-145.69;100.00
1726;BME280;41776;48.260;8.928;2022-10-03T01:45:07;72642.28;;;-145.69;100.00
1726;BME280;41776;48.260;8.928;2022-10-03T01:47:42;72664.16;;;-145.69;100.00
1726;BME280;41776;48.260;8.928;2022-10-03T01:50:15;72656.22;;;-145.69;100.00
1726;BME280;41776;48.260;8.928;2022-10-03T01:52:51;72656.22;;;-145.69;100.00
1726;BME280;41776;48.260;8.928;2022-10-03T01:55:22;72656.22;;;-145.69;100.00
1726;BME280;41776;48.260;8.928;2022-10-03T01:57:57;72672.13;;;-145.69;100.00
1726;BME280;41776;48.260;8.928;2022-10-03T02:00:33;72690.03;;;-145.69;100.00
1726;BME280;41776;48.260;8.928;2022-10-03T02:03:05;72672.13;;;-145.69;100.00
1726;BME280;41776;48.260;8.928;2022-10-03T02:05:39;72654.22;;;-145.69;100.00
1726;BME280;41776;48.260;8.928;2022-10-03T02:08:14;72644.25;;;-145.69;100.00
1726;BME280;41776;48.260;8.928;2022-10-03T02:10:46;72632.31;;;-145.69;100.00
1726;BME280;41776;48.260;8.928;2022-10-03T02:13:20;72636.31;;;-145.69;100.00
1726;BME280;41776;48.260;8.928;2022-10-03T02:15:56;72636.31;;;-145.69;100.00
1726;BME280;41776;48.260;8.928;2022-10-03T02:18:33;72622.38;;;-145.69;100.00
1726;BME280;41776;48.260;8.928;2022-10-03T02:21:09;72626.34;;;-145.69;100.00
1726;BME280;41776;48.260;8.928;2022-10-03T02:23:39;72616.41;;;-145.69;100.00
1726;BME280;41776;48.260;8.928;2022-10-03T02:26:36;72618.38;;;-145.69;100.00
1726;BME280;41776;48.260;8.928;2022-10-03T02:29:43;72620.38;;;-145.69;100.00
1726;BME280;41776;48.260;8.928;2022-10-03T02:32:50;72620.38;;;-145.69;100.00
1726;BME280;41776;48.260;8.928;2022-10-03T02:35:50;72618.38;;;-145.69;100.00
1726;BME280;41776;48.260;8.928;2022-10-03T02:38:40;72612.41;;;-145.69;100.00
1726;BME280;41776;48.260;8.928;2022-10-03T02:41:47;72612.41;;;-145.69;100.00
1726;BME280;41776;48.260;8.928;2022-10-03T02:44:50;72608.44;;;-145.69;100.00
1726;BME280;41776;48.260;8.928;2022-10-03T02:47:50;72616.41;;;-145.69;100.00
1726;BME280;41776;48.260;8.928;2022-10-03T02:56:42;72608.44;;;-145.69;100.00
1726;BME280;41776;48.260;8.928;2022-10-03T02:59:46;72600.47;;;-145.69;100.00
1726;BME280;41776;48.260;8.928;2022-10-03T03:02:38;72588.53;;;-145.69;100.00
1726;BME280;41776;48.260;8.928;2022-10-03T03:05:39;72582.56;;;-145.69;100.00
1726;BME280;41776;48.260;8.928;2022-10-03T03:08:35;72590.53;;;-145.69;100.00
1726;BME280;41776;48.260;8.928;2022-10-03T03:11:34;72594.50;;;-145.69;100.00
1726;BME280;41776;48.260;8.928;2022-10-03T03:14:41;72592.50;;;-145.69;100.00
1726;BME280;41776;48.260;8.928;2022-10-03T03:17:23;72592.50;;;-145.69;100.00
1726;BME280;41776;48.260;8.928;2022-10-03T03:23:34;72570.63;;;-145.69;100.00
1726;BME280;41776;48.260;8.928;2022-10-03T03:29:10;72592.50;;;-145.69;100.00
1726;BME280;41776;48.260;8.928;2022-10-03T03:31:48;72616.41;;;-145.69;100.00
1726;BME280;41776;48.260;8.928;2022-10-03T03:34:24;72612.41;;;-145.69;100.00
1726;BME280;41776;48.260;8.928;2022-10-03T03:37:00;72620.38;;;-145.69;100.00
1726;BME280;41776;48.260;8.928;2022-10-03T03:39:43;72630.31;;;-145.69;100.00
1726;BME280;41776;48.260;8.928;2022-10-03T03:42:56;72602.47;;;-145.69;100.00
1726;BME280;41776;48.260;8.928;2022-10-03T03:45:44;72604.44;;;-145.69;100.00
1726;BME280;41776;48.260;8.928;2022-10-03T03:48:25;72606.44;;;-145.69;100.00
1726;BME280;41776;48.260;8.928;2022-10-03T03:51:12;72612.41;;;-145.69;100.00
1726;BME280;41776;48.260;8.928;2022-10-03T03:54:10;72622.38;;;-145.69;100.00
1726;BME280;41776;48.260;8.928;2022-10-03T03:57:15;72614.41;;;-145.69;100.00
1726;BME280;41776;48.260;8.928;2022-10-03T04:00:00;72618.38;;;-145.69;100.00
1726;BME280;41776;48.260;8.928;2022-10-03T04:02:41;72628.34;;;-145.69;100.00
1726;BME280;41776;48.260;8.928;2022-10-03T04:05:18;72630.31;;;-145.69;100.00
1726;BME280;41776;48.260;8.928;2022-10-03T04:08:02;72646.25;;;-145.69;100.00
1726;BME280;41776;48.260;8.928;2022-10-03T04:10:44;72648.25;;;-145.69;100.00
1726;BME280;41776;48.260;8.928;2022-10-03T04:13:31;72632.31;;;-145.69;100.00
1726;BME280;41776;48.260;8.928;2022-10-03T04:16:19;72646.25;;;-145.69;100.00
1726;BME280;41776;48.260;8.928;2022-10-03T04:19:15;72640.28;;;-145.69;100.00
1726;BME280;41776;48.260;8.928;2022-10-03T04:22:07;72636.31;;;-145.69;100.00
1726;BME280;41776;48.260;8.928;2022-10-03T04:24:54;72642.28;;;-145.69;100.00
1726;BME280;41776;48.260;8.928;2022-10-03T04:27:35;72668.16;;;-145.69;100.00
1726;BME280;41776;48.260;8.928;2022-10-03T04:30:10;72672.13;;;-145.69;100.00
1726;BME280;41776;48.260;8.928;2022-10-03T04:33:09;72664.16;;;-145.69;100.00
1726;BME280;41776;48.260;8.928;2022-10-03T04:35:54;72664.16;;;-145.69;100.00
1726;BME280;41776;48.260;8.928;2022-10-03T04:38:44;72690.03;;;-145.69;100.00
1726;BME280;41776;48.260;8.928;2022-10-03T04:41:23;72692.03;;;-145.69;100.00
1726;BME280;41776;48.260;8.928;2022-10-03T04:43:57;72705.97;;;-145.69;100.00
1726;BME280;41776;48.260;8.928;2022-10-03T04:46:29;72692.03;;;-145.69;100.00
1726;BME280;41776;48.260;8.928;2022-10-03T04:49:03;72680.09;;;-145.69;100.00
1726;BME280;41776;48.260;8.928;2022-10-03T04:51:40;72660.19;;;-145.69;100.00
1726;BME280;41776;48.260;8.928;2022-10-03T04:54:18;72628.34;;;-145.69;100.00
1726;BME280;41776;48.260;8.928;2022-10-03T04:56:51;72616.41;;;-145.69;100.00
1726;BME280;41776;48.260;8.928;2022-10-03T04:59:33;72612.41;;;-145.69;100.00
1726;BME280;41776;48.260;8.928;2022-10-03T05:02:10;72620.38;;;-145.69;100.00
1726;BME280;41776;48.260;8.928;2022-10-03T05:05:00;72610.44;;;-145.69;100.00
1726;BME280;41776;48.260;8.928;2022-10-03T05:07:37;72614.41;;;-145.69;100.00
1726;BME280;41776;48.260;8.928;2022-10-03T05:10:33;72616.41;;;-145.69;100.00
1726;BME280;41776;48.260;8.928;2022-10-03T05:13:09;72608.44;;;-145.69;100.00
1726;BME280;41776;48.260;8.928;2022-10-03T05:15:46;72616.41;;;-145.69;100.00
1726;BME280;41776;48.260;8.928;2022-10-03T05:18:19;72620.38;;;-145.69;100.00
1726;BME280;41776;48.260;8.928;2022-10-03T05:20:53;72628.34;;;-145.69;100.00
1726;BME280;41776;48.260;8.928;2022-10-03T05:23:33;72640.28;;;-145.69;100.00
1726;BME280;41776;48.260;8.928;2022-10-03T05:26:11;72664.16;;;-145.69;100.00
1726;BME280;41776;48.260;8.928;2022-10-03T05:28:47;72698.00;;;-145.69;100.00
1726;BME280;41776;48.260;8.928;2022-10-03T05:31:25;72723.88;;;-145.69;100.00
1726;BME280;41776;48.260;8.928;2022-10-03T05:34:03;72747.78;;;-145.69;100.00
1726;BME280;41776;48.260;8.928;2022-10-03T05:36:55;72771.66;;;-145.69;100.00
1726;BME280;41776;48.260;8.928;2022-10-03T05:39:26;72783.59;;;-145.69;100.00
1726;BME280;41776;48.260;8.928;2022-10-03T05:41:59;72799.53;;;-145.69;100.00
1726;BME280;41776;48.260;8.928;2022-10-03T05:44:39;72807.47;;;-145.69;100.00
1726;BME280;41776;48.260;8.928;2022-10-03T05:47:10;72819.44;;;-145.69;100.00
1726;BME280;41776;48.260;8.928;2022-10-03T05:52:55;72823.41;;;-145.69;100.00
1726;BME280;41776;48.260;8.928;2022-10-03T05:55:31;72803.50;;;-145.69;100.00
1726;BME280;41776;48.260;8.928;2022-10-03T05:58:14;72779.63;;;-145.69;100.00
1726;BME280;41776;48.260;8.928;2022-10-03T06:04:21;72723.88;;;-145.69;100.00
1726;BME280;41776;48.260;8.928;2022-10-03T06:07:04;72694.03;;;-145.69;100.00
1726;BME280;41776;48.260;8.928;2022-10-03T06:12:46;72642.28;;;-145.69;100.00
1726;BME280;41776;48.260;8.928;2022-10-03T06:15:31;72620.38;;;-145.69;100.00
1726;BME280;41776;48.260;8.928;2022-10-03T06:18:22;72642.28;;;-145.69;100.00
1726;BME280;41776;48.260;8.928;2022-10-03T06:21:19;72636.31;;;-145.69;100.00
1726;BME280;41776;48.260;8.928;2022-10-03T06:24:15;72654.22;;;-145.69;100.00
1726;BME280;41776;48.260;8.928;2022-10-03T06:27:02;72650.22;;;-145.69;100.00
1726;BME280;41776;48.260;8.928;2022-10-03T06:29:57;72626.34;;;-145.69;100.00
1726;BME280;41776;48.260;8.928;2022-10-03T06:33:03;72622.38;;;-145.69;100.00
1726;BME280;41776;48.260;8.928;2022-10-03T06:36:03;72640.28;;;-145.69;100.00
1726;BME280;41776;48.260;8.928;2022-10-03T06:42:03;72608.44;;;-145.69;100.00
1726;BME280;41776;48.260;8.928;2022-10-03T06:44:47;72580.56;;;-145.69;100.00
1726;BME280;41776;48.260;8.928;2022-10-03T06:47:33;72610.44;;;-145.69;100.00
1726;BME280;41776;48.260;8.928;2022-10-03T06:50:27;72594.50;;;-145.69;100.00
1726;BME280;41776;48.260;8.928;2022-10-03T06:53:10;72608.44;;;-145.69;100.00
1726;BME280;41776;48.260;8.928;2022-10-03T06:55:52;72578.56;;;-145.69;100.00
1726;BME280;41776;48.260;8.928;2022-10-03T06:58:50;72588.53;;;-145.69;100.00
1726;BME280;41776;48.260;8.928;2022-10-03T07:01:42;72600.47;;;-145.69;100.00
1726;BME280;41776;48.260;8.928;2022-10-03T07:04:29;72532.78;;;-145.69;100.00
1726;BME280;41776;48.260;8.928;2022-10-03T07:07:35;72544.75;;;-145.69;100.00
1726;BME280;41776;48.260;8.928;2022-10-03T07:10:19;72548.72;;;-145.69;100.00
1726;BME280;41776;48.260;8.928;2022-10-03T07:13:09;72532.78;;;-145.69;100.00
1726;BME280;41776;48.260;8.928;2022-10-03T07:15:51;72493.00;;;-145.69;100.00
1726;BME280;41776;48.260;8.928;2022-10-03T07:27:43;72494.97;;;-145.69;100.00
1726;BME280;41776;48.260;8.928;2022-10-03T07:30:16;72479.06;;;-145.69;100.00
1726;BME280;41776;48.260;8.928;2022-10-03T07:36:14;72477.06;;;-145.69;100.00
1726;BME280;41776;48.260;8.928;2022-10-03T07:39:31;72447.22;;;-145.69;100.00
1726;BME280;41776;48.260;8.928;2022-10-03T07:45:27;72423.31;;;-145.69;100.00
1726;BME280;41776;48.260;8.928;2022-10-03T07:48:24;72341.72;;;-145.69;100.00
1726;BME280;41776;48.260;8.928;2022-10-03T07:51:19;72327.78;;;-145.69;100.00
1726;BME280;41776;48.260;8.928;2022-10-03T07:54:20;72415.38;;;-145.69;100.00
1726;BME280;41776;48.260;8.928;2022-10-03T07:57:04;72371.56;;;-145.69;100.00
1726;BME280;41776;48.260;8.928;2022-10-03T08:02:45;72403.41;;;-145.69;100.00
1726;BME280;41776;48.260;8.928;2022-10-03T08:05:33;72347.69;;;-145.69;100.00
1726;BME280;41776;48.260;8.928;2022-10-03T08:08:28;72313.84;;;-145.69;100.00
1726;BME280;41776;48.260;8.928;2022-10-03T08:11:32;72391.47;;;-145.69;100.00
1726;BME280;41776;48.260;8.928;2022-10-03T08:14:19;72357.66;;;-145.69;100.00
1726;BME280;41776;48.260;8.928;2022-10-03T08:17:17;72327.78;;;-145.69;100.00
1726;BME280;41776;48.260;8.928;2022-10-03T08:20:21;72321.81;;;-145.69;100.00
1726;BME280;41776;48.260;8.928;2022-10-03T08:23:20;72341.72;;;-145.69;100.00
1726;BME280;41776;48.260;8.928;2022-10-03T08:25:57;72325.81;;;-145.69;100.00
1726;BME280;41776;48.260;8.928;2022-10-03T08:28:40;72305.91;;;-145.69;100.00
1726;BME280;41776;48.260;8.928;2022-10-03T08:31:37;72274.06;;;-145.69;100.00
1726;BME280;41776;48.260;8.928;2022-10-03T08:34:26;72289.97;;;-145.69;100.00
1726;BME280;41776;48.260;8.928;2022-10-03T08:37:18;72280.03;;;-145.69;100.00
1726;BME280;41776;48.260;8.928;2022-10-03T08:46:03;72280.03;;;-145.69;100.00
1726;BME280;41776;48.260;8.928;2022-10-03T08:48:50;72289.97;;;-145.69;100.00
1726;BME280;41776;48.260;8.928;2022-10-03T08:54:46;72325.81;;;-145.69;100.00
1726;BME280;41776;48.260;8.928;2022-10-03T08:57:39;72315.84;;;-145.69;100.00
1726;BME280;41776;48.260;8.928;2022-10-03T09:00:18;72337.75;;;-145.69;100.00
1726;BME280;41776;48.260;8.928;2022-10-03T09:03:12;72339.72;;;-145.69;100.00
1726;BME280;41776;48.260;8.928;2022-10-03T09:06:11;72367.59;;;-145.69;100.00
1726;BME280;41776;48.260;8.928;2022-10-03T09:09:15;72361.63;;;-145.69;100.00
1726;BME280;41776;48.260;8.928;2022-10-03T09:12:11;72371.56;;;-145.69;100.00
1726;BME280;41776;48.260;8.928;2022-10-03T09:14:56;72333.75;;;-145.69;100.00
1726;BME280;41776;48.260;8.928;2022-10-03T09:20:59;72286.00;;;-145.69;100.00
1726;BME280;41776;48.260;8.928;2022-10-03T09:27:08;72250.16;;;-145.69;100.00
1726;BME280;41776;48.260;8.928;2022-10-03T09:30:07;72170.56;;;-145.69;100.00
1726;BME280;41776;48.260;8.928;2022-10-03T09:33:02;72168.56;;;-145.69;100.00
1726;BME280;41776;48.260;8.928;2022-10-03T09:36:05;72142.69;;;-145.69;100.00
1726;BME280;41776;48.260;8.928;2022-10-03T09:41:41;72051.16;;;-145.69;100.00
1726;BME280;41776;48.260;8.928;2022-10-03T09:44:27;72084.97;;;-145.69;100.00
1726;BME280;41776;48.260;8.928;2022-10-03T09:53:30;72057.13;;;-145.69;100.00
1726;BME280;41776;48.260;8.928;2022-10-03T09:56:21;72055.13;;;-145.69;100.00
1726;BME280;41776;48.260;8.928;2022-10-03T10:01:53;72184.50;;;-145.69;100.00
1726;BME280;41776;48.260;8.928;2022-10-03T10:04:40;72206.38;;;-145.69;100.00
1726;BME280;41776;48.260;8.928;2022-10-03T10:10:51;72194.44;;;-145.69;100.00
1726;BME280;41776;48.260;8.928;2022-10-03T10:16:57;72202.41;;;-145.69;100.00
1726;BME280;41776;48.260;8.928;2022-10-03T10:19:45;72238.22;;;-145.69;100.00
1726;BME280;41776;48.260;8.928;2022-10-03T10:22:50;72192.44;;;-145.69;100.00
1726;BME280;41776;48.260;8.928;2022-10-03T10:25:35;72150.66;;;-145.69;100.00
1726;BME280;41776;48.260;8.928;2022-10-03T10:28:31;72146.69;;;-145.69;100.00
1726;BME280;41776;48.260;8.928;2022-10-03T10:38:04;72134.72;;;-145.69;100.00
1726;BME280;41776;48.260;8.928;2022-10-03T10:41:24;72110.84;;;-145.69;100.00
1726;BME280;41776;48.260;8.928;2022-10-03T10:47:35;72154.63;;;-145.69;100.00
1726;BME280;41776;48.260;8.928;2022-10-03T10:56:55;72128.75;;;-145.69;100.00
1726;BME280;41776;48.260;8.928;2022-10-03T10:59:58;72134.72;;;-145.69;100.00
1726;BME280;41776;48.260;8.928;2022-10-03T11:05:47;72027.25;;;-145.69;100.00
1726;BME280;41776;48.260;8.928;2022-10-03T11:18:20;72047.16;;;-145.69;100.00
1726;BME280;41776;48.260;8.928;2022-10-03T11:27:42;72086.97;;;-145.69;100.00
1726;BME280;41776;48.260;8.928;2022-10-03T11:30:48;72051.16;;;-145.69;100.00
1726;BME280;41776;48.260;8.928;2022-10-03T11:37:06;72027.25;;;-145.69;100.00
1726;BME280;41776;48.260;8.928;2022-10-03T11:39:42;72011.34;;;-145.69;100.00
1726;BME280;41776;48.260;8.928;2022-10-03T11:42:23;71973.53;;;-145.69;100.00
1726;BME280;41776;48.260;8.928;2022-10-03T11:44:55;71911.84;;;-145.69;100.00
1726;BME280;41776;48.260;8.928;2022-10-03T11:48:08;71929.75;;;-145.69;100.00
1726;BME280;41776;48.260;8.928;2022-10-03T11:50:45;71931.72;;;-145.69;99.29
1726;BME280;41776;48.260;8.928;2022-10-03T11:53:39;71965.56;;;-145.69;100.00
1726;BME280;41776;48.260;8.928;2022-10-03T11:56:30;71967.56;;;-145.69;100.00
1726;BME280;41776;48.260;8.928;2022-10-03T12:02:06;71999.41;;;-145.69;100.00
1726;BME280;41776;48.260;8.928;2022-10-03T12:04:45;71991.44;;;-145.69;100.00
1726;BME280;41776;48.260;8.928;2022-10-03T12:07:31;71979.50;;;-145.69;100.00
1726;BME280;41776;48.260;8.928;2022-10-03T12:10:32;71967.56;;;-145.69;100.00
1726;BME280;41776;48.260;8.928;2022-10-03T12:13:07;71969.53;;;-145.69;100.00
1726;BME280;41776;48.260;8.928;2022-10-03T12:15:41;71939.69;;;-145.69;100.00
1726;BME280;41776;48.260;8.928;2022-10-03T12:18:14;71933.72;;;-145.69;100.00
1726;BME280;41776;48.260;8.928;2022-10-03T12:21:04;71895.91;;;-145.69;100.00
1726;BME280;41776;48.260;8.928;2022-10-03T12:23:46;71872.03;;;-145.69;99.26
1726;BME280;41776;48.260;8.928;2022-10-03T12:26:26;71876.00;;;-145.69;100.00
1726;BME280;41776;48.260;8.928;2022-10-03T12:28:55;71903.88;;;-145.69;100.00
1726;BME280;41776;48.260;8.928;2022-10-03T12:31:26;71945.66;;;-145.69;100.00
1726;BME280;41776;48.260;8.928;2022-10-03T12:34:02;71959.59;;;-145.69;100.00
1726;BME280;41776;48.260;8.928;2022-10-03T12:36:47;71965.56;;;-145.69;100.00
1726;BME280;41776;48.260;8.928;2022-10-03T12:39:23;71993.44;;;-145.69;100.00
1726;BME280;41776;48.260;8.928;2022-10-03T12:42:07;71995.41;;;-145.69;100.00
1726;BME280;41776;48.260;8.928;2022-10-03T12:44:46;71987.47;;;-145.69;100.00
1726;BME280;41776;48.260;8.928;2022-10-03T12:47:24;71949.66;;;-145.69;100.00
1726;BME280;41776;48.260;8.928;2022-10-03T12:49:57;71935.72;;;-145.69;100.00
1726;BME280;41776;48.260;8.928;2022-10-03T12:52:27;71927.75;;;-145.69;100.00
1726;BME280;41776;48.260;8.928;2022-10-03T12:55:04;71883.97;;;-145.69;100.00
1726;BME280;41776;48.260;8.928;2022-10-03T12:58:00;71846.16;;;-145.69;100.00
1726;BME280;41776;48.260;8.928;2022-10-03T13:00:33;71772.53;;;-145.69;95.62
1726;BME280;41776;48.260;8.928;2022-10-03T13:03:15;71740.69;;;-145.69;97.97
1726;BME280;41776;48.260;8.928;2022-10-03T13:06:11;71712.81;;;-145.69;96.16
1726;BME280;41776;48.260;8.928;2022-10-03T13:08:52;71688.94;;;-145.69;100.00
1726;BME280;41776;48.260;8.928;2022-10-03T13:11:29;71680.97;;;-145.69;88.88
1726;BME280;41776;48.260;8.928;2022-10-03T13:14:06;71677.00;;;-145.69;90.31
1726;BME280;41776;48.260;8.928;2022-10-03T13:16:43;71734.72;;;-145.69;92.41
1726;BME280;41776;48.260;8.928;2022-10-03T13:19:20;71788.44;;;-145.69;92.64
1726;BME280;41776;48.260;8.928;2022-10-03T13:21:56;71832.22;;;-145.69;98.50
1726;BME280;41776;48.260;8.928;2022-10-03T13:24:40;71856.09;;;-145.69;96.64
1726;BME280;41776;48.260;8.928;2022-10-03T13:27:25;71901.88;;;-145.69;99.36
1726;BME280;41776;48.260;8.928;2022-10-03T13:30:03;71895.91;;;-145.69;100.00
1726;BME280;41776;48.260;8.928;2022-10-03T13:32:35;71883.97;;;-145.69;97.90
1726;BME280;41776;48.260;8.928;2022-10-03T13:35:07;71828.25;;;-145.69;92.75
1726;BME280;41776;48.260;8.928;2022-10-03T13:38:12;71679.00;;;-145.69;85.84
1726;BME280;41776;48.260;8.928;2022-10-03T13:40:47;71619.28;;;-145.69;85.45
1726;BME280;41776;48.260;8.928;2022-10-03T13:43:21;71651.13;;;-145.69;81.89
1726;BME280;41776;48.260;8.928;2022-10-03T13:45:52;71525.78;;;-145.69;78.20
1726;BME280;41776;48.260;8.928;2022-10-03T13:48:23;71360.59;;;-145.69;68.10
1726;BME280;41776;48.260;8.928;2022-10-03T13:50:54;71183.50;;;-145.69;58.93
1726;BME280;41776;48.260;8.928;2022-10-03T13:53:48;71117.84;;;-145.69;57.77
1726;BME280;41776;48.260;8.928;2022-10-03T13:56:27;71036.28;;;-145.69;54.74
1726;BME280;41776;48.260;8.928;2022-10-03T13:59:04;71048.22;;;-145.69;54.96
1726;BME280;41776;48.260;8.928;2022-10-03T14:01:42;70893.03;;;-145.69;50.76
1726;BME280;41776;48.260;8.928;2022-10-03T14:04:35;70845.28;;;-145.69;45.59
1726;BME280;41776;48.260;8.928;2022-10-03T14:07:09;70906.94;;;-145.69;46.17
1726;BME280;41776;48.260;8.928;2022-10-03T14:09:57;71101.94;;;-145.69;51.40
1726;BME280;41776;48.260;8.928;2022-10-03T14:12:36;71032.28;;;-145.69;52.31
1726;BME280;41776;48.260;8.928;2022-10-03T14:15:22;70994.50;;;-145.69;50.47
1726;BME280;41776;48.260;8.928;2022-10-03T14:17:57;70954.69;;;-145.69;51.21
1726;BME280;41776;48.260;8.928;2022-10-03T14:20:31;70865.16;;;-145.69;45.27
1726;BME280;41776;48.260;8.928;2022-10-03T14:23:13;70883.06;;;-145.69;46.84
1726;BME280;41776;48.260;8.928;2022-10-03T14:25:45;70747.78;;;-145.69;43.34
1726;BME280;41776;48.260;8.928;2022-10-03T14:28:19;70745.78;;;-145.69;40.96
1726;BME280;41776;48.260;8.928;2022-10-03T14:30:57;70837.31;;;-145.69;42.26
1726;BME280;41776;48.260;8.928;2022-10-03T14:33:34;71167.59;;;-145.69;51.38
1726;BME280;41776;48.260;8.928;2022-10-03T14:36:16;71265.09;;;-145.69;55.94
1726;BME280;41776;48.260;8.928;2022-10-03T14:38:57;71482.00;;;-145.69;70.03
1726;BME280;41776;48.260;8.928;2022-10-03T14:41:46;71497.91;;;-145.69;67.69
1726;BME280;41776;48.260;8.928;2022-10-03T14:44:18;71593.44;;;-145.69;74.66
1726;BME280;41776;48.260;8.928;2022-10-03T14:46:50;71720.78;;;-145.69;84.93
1726;BME280;41776;48.260;8.928;2022-10-03T14:49:24;71583.47;;;-145.69;79.83
1726;BME280;41776;48.260;8.928;2022-10-03T14:51:55;71302.91;;;-145.69;66.33
1726;BME280;41776;48.260;8.928;2022-10-03T14:54:26;71111.88;;;-145.69;56.24
1726;BME280;41776;48.260;8.928;2022-10-03T14:56:54;70964.66;;;-145.69;46.93
1726;BME280;41776;48.260;8.928;2022-10-03T14:59:25;70956.69;;;-145.69;47.75
1726;BME280;41776;48.260;8.928;2022-10-03T15:01:55;70861.19;;;-145.69;44.60
1726;BME280;41776;48.260;8.928;2022-10-03T15:04:29;70998.47;;;-145.69;44.22
1726;BME280;41776;48.260;8.928;2022-10-03T15:06:57;70976.59;;;-145.69;45.65
1726;BME280;41776;48.260;8.928;2022-10-03T15:09:41;70928.84;;;-145.69;43.44
1726;BME280;41776;48.260;8.928;2022-10-03T15:12:11;70964.66;;;-145.69;45.26
1726;BME280;41776;48.260;8.928;2022-10-03T15:14:42;71028.31;;;-145.69;48.06
1726;BME280;41776;48.260;8.928;2022-10-03T15:17:17;70960.66;;;-145.69;46.46
1726;BME280;41776;48.260;8.928;2022-10-03T15:19:49;70926.84;;;-145.69;44.11
1726;BME280;41776;48.260;8.928;2022-10-03T15:22:30;71002.44;;;-145.69;44.38
1726;BME280;41776;48.260;8.928;2022-10-03T15:25:04;70940.78;;;-145.69;43.29
1726;BME280;41776;48.260;8.928;2022-10-03T15:27:32;70924.84;;;-145.69;41.16
1726;BME280;41776;48.260;8.928;2022-10-03T15:30:02;70956.69;;;-145.69;44.17
1726;BME280;41776;48.260;8.928;2022-10-03T15:32:34;70968.63;;;-145.69;42.11
1726;BME280;41776;48.260;8.928;2022-10-03T15:35:04;70904.97;;;-145.69;42.59
1726;BME280;41776;48.260;8.928;2022-10-03T15:37:34;70934.81;;;-145.69;42.82
1726;BME280;41776;48.260;8.928;2022-10-03T15:40:07;70916.91;;;-145.69;41.80
1726;BME280;41776;48.260;8.928;2022-10-03T15:42:45;70877.09;;;-145.69;42.25
1726;BME280;41776;48.260;8.928;2022-10-03T15:45:18;70881.09;;;-145.69;40.60
1726;BME280;41776;48.260;8.928;2022-10-03T15:47:48;70924.84;;;-145.69;43.41
1726;BME280;41776;48.260;8.928;2022-10-03T15:50:20;70916.91;;;-145.69;42.17
1726;BME280;41776;48.260;8.928;2022-10-03T15:52:50;70815.44;;;-145.69;41.19
1726;BME280;41776;48.260;8.928;2022-10-03T15:55:21;70837.31;;;-145.69;41.13
1726;BME280;41776;48.260;8.928;2022-10-03T15:57:52;70940.78;;;-145.69;43.00
1726;BME280;41776;48.260;8.928;2022-10-03T16:00:22;70904.97;;;-145.69;41.83
1726;BME280;41776;48.260;8.928;2022-10-03T16:02:56;71046.22;;;-145.69;44.40
1726;BME280;41776;48.260;8.928;2022-10-03T16:05:26;71259.13;;;-145.69;50.09
1726;BME280;41776;48.260;8.928;2022-10-03T16:07:58;71434.22;;;-145.69;57.93
1726;BME280;41776;48.260;8.928;2022-10-03T16:10:29;71549.66;;;-145.69;64.78
1726;BME280;41776;48.260;8.928;2022-10-03T16:13:01;71553.63;;;-145.69;67.89
1726;BME280;41776;48.260;8.928;2022-10-03T16:15:40;71673.03;;;-145.69;74.58
1726;BME280;41776;48.260;8.928;2022-10-03T16:21:37;71840.19;;;-145.69;87.33